createdAt,value
2023-01-30T00:00:12.373Z,4.94
2023-01-30T00:01:16.092Z,4.94
2023-01-30T00:02:19.310Z,4.94
2023-01-30T00:03:54.860Z,4.94
2023-01-30T00:04:58.492Z,4.94
2023-01-30T00:06:02.031Z,4.94
2023-01-30T00:07:37.547Z,4.94
2023-01-30T00:08:40.620Z,4.94
2023-01-30T00:09:44.113Z,4.94
2023-01-30T00:11:19.376Z,5.00
2023-01-30T00:12:22.964Z,5.00
2023-01-30T00:13:26.314Z,5.00
2023-01-30T00:15:02.238Z,5.00
2023-01-30T00:16:05.499Z,5.00
2023-01-30T00:17:09.332Z,5.00
2023-01-30T00:18:44.874Z,5.06
2023-01-30T00:19:48.277Z,5.06
2023-01-30T00:20:52.531Z,5.06
2023-01-30T00:22:28.124Z,5.06
2023-01-30T00:23:47.149Z,5.13
2023-01-30T00:24:51.108Z,5.13
2023-01-30T00:26:28.494Z,5.13
2023-01-30T00:27:32.315Z,5.13
2023-01-30T00:28:35.761Z,5.13
2023-01-30T00:30:11.162Z,5.13
2023-01-30T00:31:15.802Z,5.13
2023-01-30T00:32:19.447Z,5.19
2023-01-30T00:33:54.976Z,5.13
2023-01-30T00:34:58.504Z,5.13
2023-01-30T00:36:02.002Z,5.19
2023-01-30T00:37:54.085Z,5.19
2023-01-30T00:38:57.416Z,5.19
2023-01-30T00:40:00.909Z,5.19
2023-01-30T00:41:38.153Z,5.19
2023-01-30T00:42:41.373Z,5.19
2023-01-30T00:43:44.839Z,5.25
2023-01-30T00:45:20.687Z,5.25
2023-01-30T00:46:24.772Z,5.25
2023-01-30T00:47:28.266Z,5.31
2023-01-30T00:49:03.581Z,5.31
2023-01-30T00:50:08.029Z,5.31
2023-01-30T00:51:11.322Z,5.31
2023-01-30T00:52:47.274Z,5.31
2023-01-30T00:53:50.881Z,5.31
2023-01-30T00:54:54.230Z,5.31
2023-01-30T00:56:30.064Z,5.31
2023-01-30T00:57:33.344Z,5.38
2023-01-30T00:58:36.739Z,5.38
2023-01-30T01:00:12.282Z,5.38
2023-01-30T01:01:15.656Z,5.38
2023-01-30T01:02:19.277Z,5.38
2023-01-30T01:03:55.118Z,5.38
2023-01-30T01:04:58.652Z,5.38
2023-01-30T01:06:02.767Z,5.38
2023-01-30T01:07:38.406Z,5.38
2023-01-30T01:08:41.814Z,5.38
2023-01-30T01:09:45.427Z,5.38
2023-01-30T01:11:21.065Z,5.38
2023-01-30T01:12:24.383Z,5.38
2023-01-30T01:13:27.928Z,5.44
2023-01-30T01:15:03.737Z,5.38
2023-01-30T01:16:07.388Z,5.44
2023-01-30T01:17:11.417Z,5.44
2023-01-30T01:18:46.827Z,5.44
2023-01-30T01:19:50.201Z,5.44
2023-01-30T01:20:53.261Z,5.44
2023-01-30T01:22:29.136Z,5.44
2023-01-30T01:23:32.438Z,5.50
2023-01-30T01:24:35.839Z,5.50
2023-01-30T01:26:11.672Z,5.50
2023-01-30T01:27:15.577Z,5.50
2023-01-30T01:28:18.998Z,5.56
2023-01-30T01:29:54.518Z,5.56
2023-01-30T01:31:00.434Z,5.56
2023-01-30T01:32:04.763Z,5.63
2023-01-30T01:33:40.572Z,5.69
2023-01-30T01:34:44.246Z,5.69
2023-01-30T01:35:47.534Z,5.69
2023-01-30T01:37:57.145Z,5.75
2023-01-30T01:39:00.478Z,5.81
2023-01-30T01:40:04.096Z,5.81
2023-01-30T01:41:39.244Z,5.88
2023-01-30T01:42:42.552Z,5.88
2023-01-30T01:43:45.903Z,5.88
2023-01-30T01:45:21.556Z,5.88
2023-01-30T01:46:25.468Z,5.94
2023-01-30T01:47:28.875Z,5.94
2023-01-30T01:49:04.185Z,6.00
2023-01-30T01:50:07.381Z,6.00
2023-01-30T01:51:10.640Z,6.06
2023-01-30T01:52:45.780Z,6.06
2023-01-30T01:53:49.860Z,6.06
2023-01-30T01:54:52.864Z,6.13
2023-01-30T01:56:28.678Z,6.13
2023-01-30T01:57:31.781Z,6.13
2023-01-30T01:58:34.858Z,6.13
2023-01-30T02:00:11.895Z,6.19
2023-01-30T02:01:15.026Z,6.19
2023-01-30T02:02:18.296Z,6.19
2023-01-30T02:03:53.983Z,6.19
2023-01-30T02:04:56.871Z,6.19
2023-01-30T02:06:00.699Z,6.19
2023-01-30T02:07:35.823Z,6.19
2023-01-30T02:08:38.997Z,6.25
2023-01-30T02:09:42.270Z,6.25
2023-01-30T02:11:17.734Z,6.25
2023-01-30T02:12:20.867Z,6.25
2023-01-30T02:13:24.297Z,6.25
2023-01-30T02:14:59.466Z,6.25
2023-01-30T02:16:03.227Z,6.25
2023-01-30T02:17:06.260Z,6.25
2023-01-30T02:18:41.638Z,6.25
2023-01-30T02:19:44.683Z,6.25
2023-01-30T02:20:47.628Z,6.25
2023-01-30T02:22:22.824Z,6.25
2023-01-30T02:23:25.913Z,6.25
2023-01-30T02:24:29.180Z,6.25
2023-01-30T02:26:05.264Z,6.25
2023-01-30T02:27:08.720Z,6.25
2023-01-30T02:28:11.774Z,6.25
2023-01-30T02:29:47.159Z,6.25
2023-01-30T02:30:50.447Z,6.25
2023-01-30T02:31:54.497Z,6.25
2023-01-30T02:33:29.310Z,6.25
2023-01-30T02:34:32.570Z,6.25
2023-01-30T02:35:35.609Z,6.25
2023-01-30T02:37:10.615Z,6.25
2023-01-30T02:38:13.822Z,6.25
2023-01-30T02:39:16.818Z,6.25
2023-01-30T02:40:51.953Z,6.25
2023-01-30T02:41:55.263Z,6.31
2023-01-30T02:42:58.426Z,6.31
2023-01-30T02:44:33.542Z,6.31
2023-01-30T02:45:36.735Z,6.31
2023-01-30T02:46:39.997Z,6.31
2023-01-30T02:48:15.167Z,6.31
2023-01-30T02:49:18.077Z,6.31
2023-01-30T02:50:21.090Z,6.31
2023-01-30T02:51:56.155Z,6.31
2023-01-30T02:52:59.417Z,6.31
2023-01-30T02:54:02.745Z,6.31
2023-01-30T02:55:37.538Z,6.31
2023-01-30T02:56:40.575Z,6.31
2023-01-30T02:57:43.871Z,6.31
2023-01-30T02:59:19.045Z,6.31
2023-01-30T03:00:12.358Z,6.31
2023-01-30T03:01:15.319Z,6.31
2023-01-30T03:02:18.836Z,6.31
2023-01-30T03:03:54.520Z,6.31
2023-01-30T03:04:57.633Z,6.31
2023-01-30T03:06:01.057Z,6.31
2023-01-30T03:07:36.100Z,6.31
2023-01-30T03:08:39.299Z,6.25
2023-01-30T03:09:42.353Z,6.31
2023-01-30T03:11:18.769Z,6.25
2023-01-30T03:12:22.380Z,6.31
2023-01-30T03:13:26.392Z,6.31
2023-01-30T03:15:02.379Z,6.31
2023-01-30T03:16:06.147Z,6.31
2023-01-30T03:17:09.625Z,6.25
2023-01-30T03:18:44.768Z,6.25
2023-01-30T03:19:47.732Z,6.31
2023-01-30T03:20:51.086Z,6.31
2023-01-30T03:22:26.127Z,6.31
2023-01-30T03:23:29.111Z,6.31
2023-01-30T03:24:32.065Z,6.31
2023-01-30T03:26:07.331Z,6.31
2023-01-30T03:27:10.864Z,6.31
2023-01-30T03:28:13.769Z,6.31
2023-01-30T03:29:49.076Z,6.31
2023-01-30T03:30:52.574Z,6.31
2023-01-30T03:31:56.718Z,6.31
2023-01-30T03:33:32.036Z,6.31
2023-01-30T03:34:35.455Z,6.31
2023-01-30T03:35:38.697Z,6.31
2023-01-30T03:37:13.833Z,6.31
2023-01-30T03:38:17.112Z,6.31
2023-01-30T03:39:20.480Z,6.38
2023-01-30T03:40:55.636Z,6.38
2023-01-30T03:41:59.072Z,6.38
2023-01-30T03:43:02.308Z,6.38
2023-01-30T03:44:37.596Z,6.38
2023-01-30T03:45:40.689Z,6.38
2023-01-30T03:46:44.247Z,6.38
2023-01-30T03:48:19.413Z,6.38
2023-01-30T03:49:22.621Z,6.44
2023-01-30T03:50:25.769Z,6.44
2023-01-30T03:52:01.065Z,6.44
2023-01-30T03:53:04.419Z,6.38
2023-01-30T03:54:07.413Z,6.44
2023-01-30T03:55:42.638Z,6.44
2023-01-30T03:56:45.895Z,6.44
2023-01-30T03:57:49.103Z,6.44
2023-01-30T03:59:24.221Z,6.44
2023-01-30T04:00:12.290Z,6.44
2023-01-30T04:01:15.825Z,6.44
2023-01-30T04:02:19.479Z,6.44
2023-01-30T04:03:55.130Z,6.44
2023-01-30T04:04:58.426Z,6.44
2023-01-30T04:06:02.121Z,6.50
2023-01-30T04:07:37.411Z,6.50
2023-01-30T04:08:40.667Z,6.50
2023-01-30T04:09:44.062Z,6.50
2023-01-30T04:11:19.415Z,6.50
2023-01-30T04:12:22.719Z,6.50
2023-01-30T04:13:25.828Z,6.50
2023-01-30T04:15:00.743Z,6.50
2023-01-30T04:16:04.216Z,6.50
2023-01-30T04:17:07.466Z,6.56
2023-01-30T04:18:42.744Z,6.56
2023-01-30T04:19:45.829Z,6.56
2023-01-30T04:20:49.020Z,6.56
2023-01-30T04:22:24.236Z,6.56
2023-01-30T04:23:27.274Z,6.56
2023-01-30T04:24:30.443Z,6.56
2023-01-30T04:26:06.343Z,6.56
2023-01-30T04:27:09.745Z,6.56
2023-01-30T04:28:13.042Z,6.56
2023-01-30T04:29:48.006Z,6.56
2023-01-30T04:30:50.737Z,6.56
2023-01-30T04:31:54.005Z,6.56
2023-01-30T04:33:28.867Z,6.56
2023-01-30T04:34:32.127Z,6.56
2023-01-30T04:35:35.028Z,6.56
2023-01-30T04:37:09.838Z,6.56
2023-01-30T04:38:13.011Z,6.56
2023-01-30T04:39:16.111Z,6.56
2023-01-30T04:40:52.014Z,6.56
2023-01-30T04:41:55.316Z,6.56
2023-01-30T04:42:58.471Z,6.56
2023-01-30T04:44:34.094Z,6.56
2023-01-30T04:45:37.443Z,6.56
2023-01-30T04:46:40.560Z,6.56
2023-01-30T04:48:15.697Z,6.56
2023-01-30T04:49:18.715Z,6.56
2023-01-30T04:50:21.823Z,6.56
2023-01-30T04:51:56.932Z,6.56
2023-01-30T04:53:00.111Z,6.56
2023-01-30T04:54:03.272Z,6.56
2023-01-30T04:55:38.540Z,6.63
2023-01-30T04:56:41.848Z,6.63
2023-01-30T04:57:44.843Z,6.63
2023-01-30T04:59:19.952Z,6.63
2023-01-30T05:00:11.895Z,6.63
2023-01-30T05:01:15.045Z,6.63
2023-01-30T05:02:18.768Z,6.56
2023-01-30T05:03:53.796Z,6.56
2023-01-30T05:04:56.804Z,6.63
2023-01-30T05:05:40.869Z,6.63
2023-01-30T05:06:44.421Z,6.56
2023-01-30T05:07:47.803Z,6.63
2023-01-30T05:09:27.293Z,6.63
2023-01-30T05:10:31.184Z,6.63
2023-01-30T05:11:34.820Z,6.63
2023-01-30T05:13:10.837Z,6.69
2023-01-30T05:14:14.574Z,6.63
2023-01-30T05:15:18.177Z,6.63
2023-01-30T05:16:54.274Z,6.63
2023-01-30T05:17:58.059Z,6.63
2023-01-30T05:19:01.481Z,6.63
2023-01-30T05:20:37.218Z,6.63
2023-01-30T05:21:40.739Z,6.63
2023-01-30T05:22:44.333Z,6.63
2023-01-30T05:24:19.825Z,6.63
2023-01-30T05:25:23.482Z,6.63
2023-01-30T05:26:26.979Z,6.63
2023-01-30T05:28:03.417Z,6.63
2023-01-30T05:29:06.555Z,6.63
2023-01-30T05:30:09.963Z,6.63
2023-01-30T05:31:46.284Z,6.69
2023-01-30T05:32:50.024Z,6.69
2023-01-30T05:33:53.516Z,6.69
2023-01-30T05:35:29.109Z,6.69
2023-01-30T05:36:32.495Z,6.69
2023-01-30T05:37:35.777Z,6.63
2023-01-30T05:39:12.367Z,6.63
2023-01-30T05:40:15.776Z,6.63
2023-01-30T05:41:19.412Z,6.56
2023-01-30T05:42:55.159Z,6.56
2023-01-30T05:43:58.496Z,6.56
2023-01-30T05:45:04.705Z,6.50
2023-01-30T05:46:41.196Z,6.44
2023-01-30T05:47:45.101Z,6.44
2023-01-30T05:48:53.223Z,6.38
2023-01-30T05:50:28.695Z,6.31
2023-01-30T05:51:32.159Z,6.25
2023-01-30T05:52:37.918Z,6.25
2023-01-30T05:54:13.486Z,6.19
2023-01-30T05:55:17.519Z,6.13
2023-01-30T05:56:21.255Z,6.13
2023-01-30T05:57:56.737Z,6.06
2023-01-30T05:59:00.396Z,6.06
2023-01-30T06:00:12.661Z,6.06
2023-01-30T06:01:16.058Z,6.00
2023-01-30T06:02:20.105Z,5.94
2023-01-30T06:03:55.833Z,5.94
2023-01-30T06:04:59.277Z,5.94
2023-01-30T06:06:03.481Z,5.94
2023-01-30T06:07:39.057Z,5.88
2023-01-30T06:08:42.466Z,5.88
2023-01-30T06:09:45.930Z,5.88
2023-01-30T06:11:21.905Z,5.81
2023-01-30T06:12:26.739Z,5.88
2023-01-30T06:13:30.353Z,5.81
2023-01-30T06:15:05.796Z,5.81
2023-01-30T06:16:09.908Z,5.81
2023-01-30T06:17:14.092Z,5.81
2023-01-30T06:18:49.880Z,5.75
2023-01-30T06:19:53.344Z,5.75
2023-01-30T06:20:56.513Z,5.69
2023-01-30T06:22:32.055Z,5.69
2023-01-30T06:23:35.476Z,5.63
2023-01-30T06:24:38.855Z,5.56
2023-01-30T06:26:14.770Z,5.56
2023-01-30T06:27:18.785Z,5.56
2023-01-30T06:28:22.669Z,5.50
2023-01-30T06:29:58.247Z,5.50
2023-01-30T06:31:02.141Z,5.44
2023-01-30T06:32:06.628Z,5.44
2023-01-30T06:33:41.827Z,5.44
2023-01-30T06:34:45.600Z,5.38
2023-01-30T06:35:49.169Z,5.38
2023-01-30T06:37:24.918Z,5.38
2023-01-30T06:38:28.530Z,5.31
2023-01-30T06:39:31.954Z,5.31
2023-01-30T06:41:07.704Z,5.25
2023-01-30T06:42:11.098Z,5.25
2023-01-30T06:43:14.488Z,5.25
2023-01-30T06:44:50.395Z,5.19
2023-01-30T06:45:54.488Z,5.19
2023-01-30T06:46:58.242Z,5.19
2023-01-30T06:48:33.975Z,5.13
2023-01-30T06:49:37.444Z,5.13
2023-01-30T06:50:40.924Z,5.06
2023-01-30T06:52:16.706Z,5.06
2023-01-30T06:53:20.138Z,5.06
2023-01-30T06:54:23.483Z,5.00
2023-01-30T06:55:59.396Z,4.94
2023-01-30T06:57:03.051Z,4.94
2023-01-30T06:58:06.535Z,4.94
2023-01-30T06:59:41.901Z,4.94
2023-01-30T07:00:12.427Z,4.94
2023-01-30T07:01:16.264Z,4.88
2023-01-30T07:02:21.545Z,4.88
2023-01-30T07:03:57.213Z,4.88
2023-01-30T07:05:00.762Z,4.88
2023-01-30T07:06:04.627Z,4.88
2023-01-30T07:07:42.258Z,4.88
2023-01-30T07:08:45.796Z,4.88
2023-01-30T07:09:58.565Z,4.81
2023-01-30T07:11:42.542Z,4.81
2023-01-30T07:12:45.752Z,4.81
2023-01-30T07:13:49.373Z,4.81
2023-01-30T07:15:25.884Z,4.81
2023-01-30T07:16:29.835Z,4.81
2023-01-30T07:17:33.634Z,4.81
2023-01-30T07:19:09.221Z,4.81
2023-01-30T07:20:12.659Z,4.81
2023-01-30T07:21:16.179Z,4.81
2023-01-30T07:22:51.863Z,4.81
2023-01-30T07:23:55.352Z,4.81
2023-01-30T07:24:58.764Z,4.81
2023-01-30T07:26:35.566Z,4.88
2023-01-30T07:27:39.407Z,4.88
2023-01-30T07:28:43.071Z,4.88
2023-01-30T07:30:18.698Z,4.88
2023-01-30T07:31:23.069Z,4.88
2023-01-30T07:32:26.756Z,4.88
2023-01-30T07:34:02.395Z,4.94
2023-01-30T07:35:06.065Z,4.94
2023-01-30T07:36:10.110Z,4.94
2023-01-30T07:37:45.588Z,4.94
2023-01-30T07:38:48.990Z,4.94
2023-01-30T07:39:52.418Z,5.00
2023-01-30T07:41:28.113Z,5.00
2023-01-30T07:42:32.118Z,5.00
2023-01-30T07:43:35.780Z,5.00
2023-01-30T07:45:11.557Z,5.00
2023-01-30T07:46:15.528Z,5.00
2023-01-30T07:47:19.543Z,5.06
2023-01-30T07:48:55.350Z,5.06
2023-01-30T07:49:58.793Z,5.06
2023-01-30T07:51:02.911Z,5.06
2023-01-30T07:52:38.500Z,5.06
2023-01-30T07:53:41.959Z,5.06
2023-01-30T07:54:45.858Z,5.13
2023-01-30T07:56:24.712Z,5.13
2023-01-30T07:57:28.069Z,5.13
2023-01-30T07:58:31.790Z,5.13
2023-01-30T08:00:12.064Z,5.13
2023-01-30T08:01:16.152Z,5.19
2023-01-30T08:02:19.912Z,5.19
2023-01-30T08:03:55.680Z,5.25
2023-01-30T08:04:59.288Z,5.25
2023-01-30T08:06:04.523Z,5.25
2023-01-30T08:07:40.324Z,5.25
2023-01-30T08:08:43.968Z,5.25
2023-01-30T08:09:47.514Z,5.25
2023-01-30T08:11:25.237Z,5.25
2023-01-30T08:12:28.729Z,5.38
2023-01-30T08:13:32.279Z,5.38
2023-01-30T08:15:08.091Z,5.38
2023-01-30T08:16:15.081Z,5.38
2023-01-30T08:17:19.147Z,5.44
2023-01-30T08:18:54.636Z,5.44
2023-01-30T08:19:58.185Z,5.44
2023-01-30T08:21:02.423Z,5.44
2023-01-30T08:22:38.197Z,5.44
2023-01-30T08:23:41.580Z,5.44
2023-01-30T08:24:47.706Z,5.38
2023-01-30T08:26:23.456Z,5.44
2023-01-30T08:27:27.298Z,5.44
2023-01-30T08:28:30.823Z,5.44
2023-01-30T08:30:06.353Z,5.50
2023-01-30T08:31:10.739Z,5.50
2023-01-30T08:32:15.825Z,5.56
2023-01-30T08:33:51.552Z,5.63
2023-01-30T08:34:55.046Z,5.69
2023-01-30T08:35:58.669Z,5.69
2023-01-30T08:37:34.575Z,5.69
2023-01-30T08:38:37.923Z,5.75
2023-01-30T08:39:41.484Z,5.75
2023-01-30T08:41:17.255Z,5.75
2023-01-30T08:42:20.947Z,5.75
2023-01-30T08:43:24.113Z,5.75
2023-01-30T08:44:59.862Z,5.81
2023-01-30T08:46:03.463Z,5.81
2023-01-30T08:47:07.275Z,5.81
2023-01-30T08:48:49.448Z,5.81
2023-01-30T08:49:53.547Z,5.81
2023-01-30T08:50:57.237Z,5.81
2023-01-30T08:52:32.798Z,5.81
2023-01-30T08:53:36.099Z,5.81
2023-01-30T08:54:39.907Z,5.88
2023-01-30T08:56:15.802Z,5.88
2023-01-30T08:57:18.995Z,5.88
2023-01-30T08:58:22.449Z,5.81
2023-01-30T08:59:58.195Z,5.81
2023-01-30T09:00:12.670Z,5.81
2023-01-30T09:01:16.603Z,5.81
2023-01-30T09:02:20.445Z,5.88
2023-01-30T09:03:58.187Z,5.88
2023-01-30T09:05:01.624Z,5.94
2023-01-30T09:06:05.251Z,5.94
2023-01-30T09:07:44.694Z,5.94
2023-01-30T09:08:48.382Z,5.94
2023-01-30T09:09:52.007Z,5.94
2023-01-30T09:11:28.155Z,6.00
2023-01-30T09:12:31.696Z,6.00
2023-01-30T09:13:35.306Z,6.00
2023-01-30T09:15:13.690Z,6.00
2023-01-30T09:16:17.378Z,6.00
2023-01-30T09:17:21.245Z,6.00
2023-01-30T09:18:57.144Z,5.94
2023-01-30T09:20:00.607Z,6.00
2023-01-30T09:21:04.687Z,6.00
2023-01-30T09:22:40.254Z,6.06
2023-01-30T09:23:43.762Z,6.06
2023-01-30T09:24:47.227Z,6.06
2023-01-30T09:26:23.106Z,6.06
2023-01-30T09:27:26.982Z,6.06
2023-01-30T09:28:30.383Z,6.13
2023-01-30T09:30:05.912Z,6.13
2023-01-30T09:31:10.414Z,6.13
2023-01-30T09:32:14.855Z,6.13
2023-01-30T09:33:50.773Z,6.06
2023-01-30T09:34:54.476Z,6.06
2023-01-30T09:35:57.896Z,6.06
2023-01-30T09:37:33.762Z,6.13
2023-01-30T09:38:37.066Z,6.13
2023-01-30T09:39:40.600Z,6.13
2023-01-30T09:41:16.087Z,6.13
2023-01-30T09:42:19.532Z,6.13
2023-01-30T09:43:24.465Z,6.19
2023-01-30T09:44:59.909Z,6.19
2023-01-30T09:46:03.737Z,6.19
2023-01-30T09:47:07.657Z,6.19
2023-01-30T09:48:53.094Z,6.19
2023-01-30T09:49:56.692Z,6.19
2023-01-30T09:51:01.678Z,6.19
2023-01-30T09:52:37.789Z,6.25
2023-01-30T09:53:41.209Z,6.25
2023-01-30T09:54:47.549Z,6.25
2023-01-30T09:56:23.089Z,6.31
2023-01-30T09:57:26.471Z,6.31
2023-01-30T09:58:29.890Z,6.31
2023-01-30T10:00:12.329Z,6.31
2023-01-30T10:01:16.570Z,6.31
2023-01-30T10:02:20.081Z,6.31
2023-01-30T10:03:56.044Z,6.31
2023-01-30T10:05:02.073Z,6.31
2023-01-30T10:06:06.322Z,6.31
2023-01-30T10:07:42.207Z,6.31
2023-01-30T10:08:46.013Z,6.31
2023-01-30T10:09:49.678Z,6.31
2023-01-30T10:11:43.092Z,6.31
2023-01-30T10:12:46.533Z,6.31
2023-01-30T10:13:49.833Z,6.31
2023-01-30T10:15:25.453Z,6.31
2023-01-30T10:16:29.285Z,6.31
2023-01-30T10:17:32.953Z,6.31
2023-01-30T10:19:08.598Z,6.31
2023-01-30T10:20:28.529Z,6.31
2023-01-30T10:21:32.746Z,6.31
2023-01-30T10:23:08.228Z,6.31
2023-01-30T10:24:11.795Z,6.38
2023-01-30T10:25:15.698Z,6.38
2023-01-30T10:26:51.717Z,6.38
2023-01-30T10:27:56.835Z,6.38
2023-01-30T10:29:07.247Z,6.38
2023-01-30T10:30:44.363Z,6.38
2023-01-30T10:31:48.915Z,6.38
2023-01-30T10:32:52.675Z,6.38
2023-01-30T10:34:28.250Z,6.38
2023-01-30T10:35:31.870Z,6.44
2023-01-30T10:36:35.461Z,6.44
2023-01-30T10:38:11.090Z,6.44
2023-01-30T10:39:14.834Z,6.44
2023-01-30T10:40:30.758Z,6.50
2023-01-30T10:42:06.499Z,6.44
2023-01-30T10:43:09.936Z,6.44
2023-01-30T10:44:13.358Z,6.50
2023-01-30T10:45:49.427Z,6.50
2023-01-30T10:46:53.109Z,6.56
2023-01-30T10:48:00.159Z,6.50
2023-01-30T10:49:54.427Z,6.56
2023-01-30T10:50:58.466Z,6.56
2023-01-30T10:52:01.694Z,6.56
2023-01-30T10:53:37.192Z,6.56
2023-01-30T10:54:40.586Z,6.63
2023-01-30T10:55:44.287Z,6.63
2023-01-30T10:57:19.777Z,6.56
2023-01-30T10:58:23.367Z,6.56
2023-01-30T10:59:26.963Z,6.56
2023-01-30T11:00:11.869Z,6.56
2023-01-30T11:01:15.688Z,6.56
2023-01-30T11:02:19.585Z,6.56
2023-01-30T11:03:59.036Z,6.69
2023-01-30T11:05:02.584Z,6.69
2023-01-30T11:06:06.923Z,6.69
2023-01-30T11:07:42.619Z,6.69
2023-01-30T11:08:46.319Z,6.75
2023-01-30T11:09:49.889Z,6.75
2023-01-30T11:11:25.586Z,6.88
2023-01-30T11:12:29.291Z,6.94
2023-01-30T11:13:32.630Z,7.06
2023-01-30T11:15:08.154Z,7.19
2023-01-30T11:16:12.371Z,7.31
2023-01-30T11:17:16.130Z,7.38
2023-01-30T11:20:01.663Z,7.38
2023-01-30T11:21:06.772Z,7.31
2023-01-30T11:22:25.161Z,7.31
2023-01-30T11:24:02.767Z,7.19
2023-01-30T11:25:06.282Z,7.19
2023-01-30T11:26:11.649Z,7.13
2023-01-30T11:28:05.883Z,7.06
2023-01-30T11:29:09.454Z,7.00
2023-01-30T11:30:12.898Z,7.00
2023-01-30T11:31:49.459Z,7.00
2023-01-30T11:32:53.738Z,7.00
2023-01-30T11:33:57.236Z,7.00
2023-01-30T11:35:32.977Z,7.00
2023-01-30T11:36:39.319Z,7.00
2023-01-30T11:37:42.776Z,7.00
2023-01-30T11:39:18.289Z,7.00
2023-01-30T11:40:22.398Z,7.00
2023-01-30T11:41:26.064Z,7.00
2023-01-30T11:43:01.715Z,7.00
2023-01-30T11:44:05.424Z,7.00
2023-01-30T11:45:17.235Z,7.00
2023-01-30T11:46:54.369Z,7.06
2023-01-30T11:48:03.916Z,7.06
2023-01-30T11:51:05.784Z,7.06
2023-01-30T11:52:42.893Z,7.06
2023-01-30T11:53:46.463Z,7.06
2023-01-30T11:54:49.908Z,7.06
2023-01-30T11:56:45.160Z,7.06
2023-01-30T11:57:48.797Z,7.06
2023-01-30T11:58:52.075Z,7.06
2023-01-30T12:00:12.880Z,7.06
2023-01-30T12:01:17.293Z,7.06
2023-01-30T12:02:21.006Z,7.06
2023-01-30T12:03:58.633Z,7.06
2023-01-30T12:05:01.809Z,7.13
2023-01-30T12:06:05.331Z,7.19
2023-01-30T12:07:41.273Z,7.25
2023-01-30T12:08:44.782Z,7.31
2023-01-30T12:09:48.296Z,7.31
2023-01-30T12:11:24.603Z,7.31
2023-01-30T12:12:28.070Z,7.31
2023-01-30T12:13:31.880Z,7.31
2023-01-30T12:15:07.562Z,7.31
2023-01-30T12:16:10.953Z,7.31
2023-01-30T12:17:14.986Z,7.31
2023-01-30T12:18:50.526Z,7.31
2023-01-30T12:19:55.107Z,7.25
2023-01-30T12:20:58.937Z,7.31
2023-01-30T12:22:34.278Z,7.31
2023-01-30T12:23:37.804Z,7.31
2023-01-30T12:24:41.385Z,7.31
2023-01-30T12:26:17.212Z,7.31
2023-01-30T12:27:21.043Z,7.31
2023-01-30T12:28:25.013Z,7.31
2023-01-30T12:30:00.763Z,7.31
2023-01-30T12:31:04.960Z,7.31
2023-01-30T12:33:44.398Z,7.31
2023-01-30T12:34:48.020Z,7.31
2023-01-30T12:35:52.135Z,7.38
2023-01-30T12:37:27.562Z,7.38
2023-01-30T12:38:31.205Z,7.38
2023-01-30T12:39:34.801Z,7.38
2023-01-30T12:41:12.685Z,7.38
2023-01-30T12:42:16.386Z,7.38
2023-01-30T12:43:23.724Z,7.38
2023-01-30T12:44:59.527Z,7.38
2023-01-30T12:46:03.965Z,7.38
2023-01-30T12:47:08.064Z,7.44
2023-01-30T12:56:16.376Z,7.56
2023-01-30T12:57:21.327Z,7.63
2023-01-30T12:58:56.868Z,7.56
2023-01-30T13:00:00.540Z,7.56
2023-01-30T13:00:12.548Z,7.56
2023-01-30T13:01:16.937Z,7.56
2023-01-30T13:02:20.967Z,7.50
2023-01-30T13:03:57.458Z,7.50
2023-01-30T13:05:04.267Z,7.56
2023-01-30T13:06:08.252Z,7.56
2023-01-30T13:07:43.939Z,7.56
2023-01-30T13:08:47.501Z,7.56
2023-01-30T13:09:50.924Z,7.56
2023-01-30T13:11:29.742Z,7.63
2023-01-30T13:12:33.415Z,7.63
2023-01-30T13:13:36.947Z,7.63
2023-01-30T13:15:12.608Z,7.69
2023-01-30T13:16:16.225Z,7.63
2023-01-30T13:17:20.093Z,7.63
2023-01-30T13:18:55.734Z,7.63
2023-01-30T13:20:14.447Z,7.63
2023-01-30T13:21:18.414Z,7.56
2023-01-30T13:22:54.238Z,7.56
2023-01-30T13:23:58.114Z,7.56
2023-01-30T13:25:01.558Z,7.56
2023-01-30T13:26:37.336Z,7.50
2023-01-30T13:27:41.147Z,7.44
2023-01-30T13:28:44.410Z,7.44
2023-01-30T13:30:20.243Z,7.38
2023-01-30T13:31:24.163Z,7.38
2023-01-30T13:32:28.844Z,7.31
2023-01-30T13:34:04.812Z,7.25
2023-01-30T13:35:08.393Z,7.19
2023-01-30T13:36:12.088Z,7.19
2023-01-30T13:37:47.927Z,7.06
2023-01-30T13:38:51.454Z,6.94
2023-01-30T13:39:55.132Z,6.94
2023-01-30T13:41:32.829Z,6.94
2023-01-30T13:42:36.419Z,6.88
2023-01-30T13:43:40.138Z,6.88
2023-01-30T13:45:19.960Z,6.88
2023-01-30T13:46:23.410Z,6.88
2023-01-30T13:47:27.576Z,6.94
2023-01-30T13:49:03.312Z,6.94
2023-01-30T13:50:06.716Z,7.00
2023-01-30T13:51:10.838Z,7.00
2023-01-30T13:52:49.375Z,7.06
2023-01-30T13:53:52.874Z,7.13
2023-01-30T13:54:56.675Z,7.13
2023-01-30T13:56:41.432Z,7.19
2023-01-30T13:57:45.635Z,7.25
2023-01-30T13:58:49.297Z,7.25
2023-01-30T14:00:12.188Z,7.25
2023-01-30T14:01:16.496Z,7.25
2023-01-30T14:02:20.369Z,7.25
2023-01-30T14:03:56.182Z,7.25
2023-01-30T14:04:59.674Z,7.25
2023-01-30T14:06:18.481Z,7.25
2023-01-30T14:07:54.014Z,7.25
2023-01-30T14:08:57.602Z,7.25
2023-01-30T14:10:01.152Z,7.25
2023-01-30T14:11:37.269Z,7.25
2023-01-30T14:12:40.803Z,7.25
2023-01-30T14:13:44.428Z,7.25
2023-01-30T14:15:20.754Z,7.19
2023-01-30T14:16:24.753Z,7.25
2023-01-30T14:17:28.538Z,7.25
2023-01-30T14:19:04.545Z,7.25
2023-01-30T14:20:08.127Z,7.25
2023-01-30T14:21:11.727Z,7.19
2023-01-30T14:22:47.413Z,7.25
2023-01-30T14:23:50.934Z,7.19
2023-01-30T14:24:54.644Z,7.25
2023-01-30T14:26:31.070Z,7.25
2023-01-30T14:27:35.250Z,7.25
2023-01-30T14:28:38.581Z,7.25
2023-01-30T14:30:14.309Z,7.25
2023-01-30T14:31:18.407Z,7.25
2023-01-30T14:32:23.203Z,7.25
2023-01-30T14:34:03.614Z,7.25
2023-01-30T14:35:07.224Z,7.25
2023-01-30T14:36:11.430Z,7.25
2023-01-30T14:37:47.472Z,7.25
2023-01-30T14:38:51.165Z,7.25
2023-01-30T14:39:54.713Z,7.25
2023-01-30T14:41:30.607Z,7.25
2023-01-30T14:42:34.113Z,7.25
2023-01-30T14:43:38.394Z,7.25
2023-01-30T14:45:18.363Z,7.25
2023-01-30T14:46:22.549Z,7.25
2023-01-30T14:48:09.567Z,7.25
2023-01-30T14:49:46.657Z,7.25
2023-01-30T14:50:50.830Z,7.25
2023-01-30T14:51:54.636Z,7.25
2023-01-30T14:53:30.376Z,7.25
2023-01-30T14:54:41.817Z,7.25
2023-01-30T14:55:46.040Z,7.19
2023-01-30T14:57:21.650Z,7.25
2023-01-30T14:58:25.374Z,7.25
2023-01-30T14:59:29.260Z,7.25
2023-01-30T15:00:17.131Z,7.19
2023-01-30T15:01:21.890Z,7.19
2023-01-30T15:02:25.941Z,7.19
2023-01-30T15:04:02.507Z,7.19
2023-01-30T15:05:06.022Z,7.19
2023-01-30T15:06:10.337Z,7.19
2023-01-30T15:07:45.922Z,7.19
2023-01-30T15:08:49.388Z,7.19
2023-01-30T15:09:52.921Z,7.13
2023-01-30T15:11:28.686Z,7.19
2023-01-30T15:12:32.229Z,7.19
2023-01-30T15:13:35.925Z,7.13
2023-01-30T15:15:11.555Z,7.13
2023-01-30T15:16:15.742Z,7.13
2023-01-30T15:17:19.877Z,7.13
2023-01-30T15:19:02.396Z,7.06
2023-01-30T15:20:06.172Z,7.06
2023-01-30T15:21:10.190Z,7.06
2023-01-30T15:22:46.114Z,7.06
2023-01-30T15:23:49.536Z,7.06
2023-01-30T15:24:53.139Z,7.06
2023-01-30T15:26:28.908Z,7.00
2023-01-30T15:27:33.125Z,7.00
2023-01-30T15:28:36.749Z,7.00
2023-01-30T15:30:12.118Z,7.00
2023-01-30T15:31:16.687Z,7.00
2023-01-30T15:32:20.530Z,6.94
2023-01-30T15:34:06.957Z,6.94
2023-01-30T15:35:10.328Z,6.88
2023-01-30T15:36:14.155Z,6.88
2023-01-30T15:37:49.924Z,6.81
2023-01-30T15:38:53.400Z,6.81
2023-01-30T15:39:57.042Z,6.81
2023-01-30T15:41:33.596Z,6.81
2023-01-30T15:42:40.632Z,6.81
2023-01-30T15:43:44.391Z,6.75
2023-01-30T15:45:20.205Z,6.75
2023-01-30T15:46:24.416Z,6.75
2023-01-30T15:47:28.028Z,6.69
2023-01-30T15:49:05.543Z,6.69
2023-01-30T15:50:09.229Z,6.69
2023-01-30T15:51:13.369Z,6.63
2023-01-30T15:52:49.247Z,6.63
2023-01-30T15:53:52.686Z,6.63
2023-01-30T15:54:56.183Z,6.63
2023-01-30T15:56:31.692Z,6.63
2023-01-30T15:57:36.455Z,6.63
2023-01-30T15:58:39.932Z,6.63
2023-01-30T16:00:12.499Z,6.56
2023-01-30T16:01:16.744Z,6.56
2023-01-30T16:02:20.689Z,6.56
2023-01-30T16:03:56.858Z,6.50
2023-01-30T16:05:00.403Z,6.50
2023-01-30T16:06:06.172Z,6.50
2023-01-30T16:07:42.032Z,6.50
2023-01-30T16:08:45.744Z,6.44
2023-01-30T16:10:04.962Z,6.44
2023-01-30T16:11:42.328Z,6.44
2023-01-30T16:12:45.837Z,6.38
2023-01-30T16:13:49.245Z,6.38
2023-01-30T16:15:24.968Z,6.38
2023-01-30T16:16:29.458Z,6.31
2023-01-30T16:17:33.539Z,6.31
2023-01-30T16:19:12.660Z,6.25
2023-01-30T16:20:16.321Z,6.31
2023-01-30T16:21:36.817Z,6.25
2023-01-30T16:23:12.645Z,6.31
2023-01-30T16:24:16.345Z,6.31
2023-01-30T16:25:20.395Z,6.25
2023-01-30T16:26:58.180Z,6.25
2023-01-30T16:28:02.979Z,6.25
2023-01-30T16:29:06.499Z,6.19
2023-01-30T16:30:43.025Z,6.19
2023-01-30T16:31:47.628Z,6.13
2023-01-30T16:32:52.112Z,6.13
2023-01-30T16:34:28.975Z,6.06
2023-01-30T16:35:32.514Z,6.06
2023-01-30T16:36:36.205Z,6.06
2023-01-30T16:38:12.100Z,6.06
2023-01-30T16:39:15.702Z,6.06
2023-01-30T16:40:19.413Z,6.06
2023-01-30T16:41:55.448Z,6.00